sensor_id;sensor_type;location;lat;lon;timestamp;P1;durP1;ratioP1;P2;durP2;ratioP2
64075;SDS011;50327;51.328;12.324;2023-05-20T00:02:13;8.77;;;4.90;;
64075;SDS011;50327;51.328;12.324;2023-05-20T00:04:38;10.32;;;4.45;;
64075;SDS011;50327;51.328;12.324;2023-05-20T00:07:05;8.55;;;4.30;;
64075;SDS011;50327;51.328;12.324;2023-05-20T00:09:31;9.35;;;4.80;;
64075;SDS011;50327;51.328;12.324;2023-05-20T00:11:56;9.85;;;4.63;;
64075;SDS011;50327;51.328;12.324;2023-05-20T00:14:21;9.25;;;4.82;;
64075;SDS011;50327;51.328;12.324;2023-05-20T00:16:47;12.52;;;5.30;;
64075;SDS011;50327;51.328;12.324;2023-05-20T00:19:12;8.50;;;4.43;;
64075;SDS011;50327;51.328;12.324;2023-05-20T00:21:37;8.85;;;4.80;;
64075;SDS011;50327;51.328;12.324;2023-05-20T00:24:02;10.15;;;5.47;;
64075;SDS011;50327;51.328;12.324;2023-05-20T00:26:28;10.55;;;4.60;;
64075;SDS011;50327;51.328;12.324;2023-05-20T00:28:53;9.57;;;4.78;;
64075;SDS011;50327;51.328;12.324;2023-05-20T00:31:18;11.23;;;5.18;;
64075;SDS011;50327;51.328;12.324;2023-05-20T00:33:43;13.95;;;4.55;;
64075;SDS011;50327;51.328;12.324;2023-05-20T00:36:09;9.07;;;4.70;;
64075;SDS011;50327;51.328;12.324;2023-05-20T00:38:34;11.48;;;5.15;;
64075;SDS011;50327;51.328;12.324;2023-05-20T00:40:59;9.93;;;4.72;;
64075;SDS011;50327;51.328;12.324;2023-05-20T00:43:24;12.65;;;5.40;;
64075;SDS011;50327;51.328;12.324;2023-05-20T00:45:53;12.23;;;5.00;;
64075;SDS011;50327;51.328;12.324;2023-05-20T00:48:18;11.15;;;5.30;;
64075;SDS011;50327;51.328;12.324;2023-05-20T00:50:45;11.63;;;5.22;;
64075;SDS011;50327;51.328;12.324;2023-05-20T00:53:11;10.25;;;4.97;;
64075;SDS011;50327;51.328;12.324;2023-05-20T00:55:36;7.38;;;4.65;;
64075;SDS011;50327;51.328;12.324;2023-05-20T00:58:01;11.63;;;4.93;;
64075;SDS011;50327;51.328;12.324;2023-05-20T01:00:27;8.18;;;4.85;;
64075;SDS011;50327;51.328;12.324;2023-05-20T01:02:53;17.02;;;5.45;;
64075;SDS011;50327;51.328;12.324;2023-05-20T01:05:19;10.18;;;5.03;;
64075;SDS011;50327;51.328;12.324;2023-05-20T01:07:44;15.40;;;6.85;;
64075;SDS011;50327;51.328;12.324;2023-05-20T01:10:10;10.98;;;5.82;;
64075;SDS011;50327;51.328;12.324;2023-05-20T01:12:42;10.05;;;5.85;;
64075;SDS011;50327;51.328;12.324;2023-05-20T01:15:08;11.25;;;5.95;;
64075;SDS011;50327;51.328;12.324;2023-05-20T01:17:35;13.38;;;5.80;;
64075;SDS011;50327;51.328;12.324;2023-05-20T01:20:02;8.65;;;4.63;;
64075;SDS011;50327;51.328;12.324;2023-05-20T01:22:29;10.40;;;5.10;;
64075;SDS011;50327;51.328;12.324;2023-05-20T01:24:54;8.40;;;4.97;;
64075;SDS011;50327;51.328;12.324;2023-05-20T01:27:21;9.45;;;4.80;;
64075;SDS011;50327;51.328;12.324;2023-05-20T01:29:47;15.82;;;5.38;;
64075;SDS011;50327;51.328;12.324;2023-05-20T01:32:16;10.77;;;5.63;;
64075;SDS011;50327;51.328;12.324;2023-05-20T01:34:43;10.15;;;5.70;;
64075;SDS011;50327;51.328;12.324;2023-05-20T01:37:09;15.10;;;5.15;;
64075;SDS011;50327;51.328;12.324;2023-05-20T01:39:35;10.70;;;5.85;;
64075;SDS011;50327;51.328;12.324;2023-05-20T01:42:02;13.48;;;6.57;;
64075;SDS011;50327;51.328;12.324;2023-05-20T01:44:27;12.90;;;5.50;;
64075;SDS011;50327;51.328;12.324;2023-05-20T01:46:53;11.75;;;5.85;;
64075;SDS011;50327;51.328;12.324;2023-05-20T01:49:18;11.10;;;6.05;;
64075;SDS011;50327;51.328;12.324;2023-05-20T01:51:43;11.52;;;5.97;;
64075;SDS011;50327;51.328;12.324;2023-05-20T01:54:08;10.88;;;5.50;;
64075;SDS011;50327;51.328;12.324;2023-05-20T01:56:34;9.70;;;5.78;;
64075;SDS011;50327;51.328;12.324;2023-05-20T01:58:59;12.38;;;6.60;;
64075;SDS011;50327;51.328;12.324;2023-05-20T02:01:24;12.38;;;6.65;;
64075;SDS011;50327;51.328;12.324;2023-05-20T02:03:50;13.05;;;6.65;;
64075;SDS011;50327;51.328;12.324;2023-05-20T02:06:15;12.95;;;6.35;;
64075;SDS011;50327;51.328;12.324;2023-05-20T02:08:40;10.20;;;6.57;;
64075;SDS011;50327;51.328;12.324;2023-05-20T02:11:05;15.77;;;7.28;;
64075;SDS011;50327;51.328;12.324;2023-05-20T02:13:30;12.48;;;6.18;;
64075;SDS011;50327;51.328;12.324;2023-05-20T02:15:56;11.88;;;6.80;;
64075;SDS011;50327;51.328;12.324;2023-05-20T02:18:21;13.93;;;6.35;;
64075;SDS011;50327;51.328;12.324;2023-05-20T02:20:46;16.02;;;6.75;;
64075;SDS011;50327;51.328;12.324;2023-05-20T02:23:11;10.63;;;6.65;;
64075;SDS011;50327;51.328;12.324;2023-05-20T02:25:36;15.07;;;7.50;;
64075;SDS011;50327;51.328;12.324;2023-05-20T02:28:02;13.55;;;6.88;;
64075;SDS011;50327;51.328;12.324;2023-05-20T02:30:29;14.13;;;7.75;;
64075;SDS011;50327;51.328;12.324;2023-05-20T02:32:55;13.90;;;7.63;;
64075;SDS011;50327;51.328;12.324;2023-05-20T02:35:21;13.45;;;7.88;;
64075;SDS011;50327;51.328;12.324;2023-05-20T02:37:46;14.15;;;7.10;;
64075;SDS011;50327;51.328;12.324;2023-05-20T02:40:12;17.85;;;8.48;;
64075;SDS011;50327;51.328;12.324;2023-05-20T02:42:38;14.23;;;7.55;;
64075;SDS011;50327;51.328;12.324;2023-05-20T02:45:03;15.52;;;8.43;;
64075;SDS011;50327;51.328;12.324;2023-05-20T02:47:29;15.80;;;8.70;;
64075;SDS011;50327;51.328;12.324;2023-05-20T02:49:54;16.13;;;8.73;;
64075;SDS011;50327;51.328;12.324;2023-05-20T02:52:19;17.30;;;9.20;;
64075;SDS011;50327;51.328;12.324;2023-05-20T02:54:45;22.80;;;9.73;;
64075;SDS011;50327;51.328;12.324;2023-05-20T02:57:11;19.52;;;10.10;;
64075;SDS011;50327;51.328;12.324;2023-05-20T02:59:36;15.98;;;8.95;;
64075;SDS011;50327;51.328;12.324;2023-05-20T03:02:01;24.42;;;10.15;;
64075;SDS011;50327;51.328;12.324;2023-05-20T03:04:27;17.40;;;9.13;;
64075;SDS011;50327;51.328;12.324;2023-05-20T03:06:52;19.17;;;9.70;;
64075;SDS011;50327;51.328;12.324;2023-05-20T03:09:17;16.15;;;9.68;;
64075;SDS011;50327;51.328;12.324;2023-05-20T03:11:43;19.23;;;10.60;;
64075;SDS011;50327;51.328;12.324;2023-05-20T03:14:08;19.20;;;9.75;;
64075;SDS011;50327;51.328;12.324;2023-05-20T03:16:34;21.08;;;9.75;;
64075;SDS011;50327;51.328;12.324;2023-05-20T03:18:59;16.60;;;9.80;;
64075;SDS011;50327;51.328;12.324;2023-05-20T03:21:25;18.58;;;10.50;;
64075;SDS011;50327;51.328;12.324;2023-05-20T03:23:50;22.98;;;9.90;;
64075;SDS011;50327;51.328;12.324;2023-05-20T03:26:15;20.00;;;10.43;;
64075;SDS011;50327;51.328;12.324;2023-05-20T03:28:41;19.13;;;10.50;;
64075;SDS011;50327;51.328;12.324;2023-05-20T03:31:06;20.23;;;10.52;;
64075;SDS011;50327;51.328;12.324;2023-05-20T03:33:33;21.17;;;11.30;;
64075;SDS011;50327;51.328;12.324;2023-05-20T03:35:58;23.30;;;10.88;;
64075;SDS011;50327;51.328;12.324;2023-05-20T03:38:23;18.35;;;10.45;;
64075;SDS011;50327;51.328;12.324;2023-05-20T03:40:49;18.52;;;10.95;;
64075;SDS011;50327;51.328;12.324;2023-05-20T03:43:14;18.48;;;10.25;;
64075;SDS011;50327;51.328;12.324;2023-05-20T03:45:39;24.05;;;10.80;;
64075;SDS011;50327;51.328;12.324;2023-05-20T03:48:04;25.48;;;12.60;;
64075;SDS011;50327;51.328;12.324;2023-05-20T03:50:30;26.60;;;16.33;;
64075;SDS011;50327;51.328;12.324;2023-05-20T03:52:56;24.35;;;13.98;;
64075;SDS011;50327;51.328;12.324;2023-05-20T03:55:21;18.63;;;10.68;;
64075;SDS011;50327;51.328;12.324;2023-05-20T03:57:46;24.27;;;11.68;;
64075;SDS011;50327;51.328;12.324;2023-05-20T04:00:12;19.20;;;10.68;;
64075;SDS011;50327;51.328;12.324;2023-05-20T04:02:38;22.10;;;11.20;;
64075;SDS011;50327;51.328;12.324;2023-05-20T04:05:03;23.35;;;11.30;;
64075;SDS011;50327;51.328;12.324;2023-05-20T04:07:29;17.52;;;10.60;;
64075;SDS011;50327;51.328;12.324;2023-05-20T04:09:54;19.08;;;9.95;;
64075;SDS011;50327;51.328;12.324;2023-05-20T04:12:19;19.55;;;10.82;;
64075;SDS011;50327;51.328;12.324;2023-05-20T04:14:45;22.02;;;10.93;;
64075;SDS011;50327;51.328;12.324;2023-05-20T04:17:10;20.63;;;10.52;;
64075;SDS011;50327;51.328;12.324;2023-05-20T04:19:35;16.15;;;8.80;;
64075;SDS011;50327;51.328;12.324;2023-05-20T04:22:02;19.95;;;10.27;;
64075;SDS011;50327;51.328;12.324;2023-05-20T04:24:27;18.70;;;10.60;;
64075;SDS011;50327;51.328;12.324;2023-05-20T04:26:53;22.17;;;10.68;;
64075;SDS011;50327;51.328;12.324;2023-05-20T04:29:18;19.95;;;9.60;;
64075;SDS011;50327;51.328;12.324;2023-05-20T04:31:46;21.15;;;9.98;;
64075;SDS011;50327;51.328;12.324;2023-05-20T04:34:12;19.33;;;10.65;;
64075;SDS011;50327;51.328;12.324;2023-05-20T04:36:38;19.75;;;10.10;;
64075;SDS011;50327;51.328;12.324;2023-05-20T04:39:03;20.40;;;9.80;;
64075;SDS011;50327;51.328;12.324;2023-05-20T04:41:34;23.25;;;10.48;;
64075;SDS011;50327;51.328;12.324;2023-05-20T04:44:00;20.58;;;10.82;;
64075;SDS011;50327;51.328;12.324;2023-05-20T04:46:25;19.23;;;10.82;;
64075;SDS011;50327;51.328;12.324;2023-05-20T04:48:51;22.50;;;10.13;;
64075;SDS011;50327;51.328;12.324;2023-05-20T04:51:17;17.83;;;10.32;;
64075;SDS011;50327;51.328;12.324;2023-05-20T04:53:43;19.90;;;9.93;;
64075;SDS011;50327;51.328;12.324;2023-05-20T04:56:09;21.60;;;11.45;;
64075;SDS011;50327;51.328;12.324;2023-05-20T04:58:34;19.25;;;10.55;;
64075;SDS011;50327;51.328;12.324;2023-05-20T05:00:59;21.38;;;10.13;;
64075;SDS011;50327;51.328;12.324;2023-05-20T05:03:25;16.13;;;9.98;;
64075;SDS011;50327;51.328;12.324;2023-05-20T05:05:54;22.33;;;11.45;;
64075;SDS011;50327;51.328;12.324;2023-05-20T05:08:19;18.60;;;11.23;;
64075;SDS011;50327;51.328;12.324;2023-05-20T05:10:44;19.70;;;11.15;;
64075;SDS011;50327;51.328;12.324;2023-05-20T05:13:10;19.40;;;10.68;;
64075;SDS011;50327;51.328;12.324;2023-05-20T05:15:36;17.33;;;10.35;;
64075;SDS011;50327;51.328;12.324;2023-05-20T05:18:01;22.85;;;11.35;;
64075;SDS011;50327;51.328;12.324;2023-05-20T05:20:26;18.67;;;10.88;;
64075;SDS011;50327;51.328;12.324;2023-05-20T05:22:51;21.65;;;10.68;;
64075;SDS011;50327;51.328;12.324;2023-05-20T05:25:16;22.27;;;10.80;;
64075;SDS011;50327;51.328;12.324;2023-05-20T05:27:42;23.23;;;10.95;;
64075;SDS011;50327;51.328;12.324;2023-05-20T05:30:09;16.75;;;10.20;;
64075;SDS011;50327;51.328;12.324;2023-05-20T05:32:35;16.20;;;10.40;;
64075;SDS011;50327;51.328;12.324;2023-05-20T05:35:00;17.33;;;10.43;;
64075;SDS011;50327;51.328;12.324;2023-05-20T05:37:25;19.80;;;11.63;;
64075;SDS011;50327;51.328;12.324;2023-05-20T05:39:51;18.67;;;10.98;;
64075;SDS011;50327;51.328;12.324;2023-05-20T05:42:16;22.02;;;11.85;;
64075;SDS011;50327;51.328;12.324;2023-05-20T05:44:41;19.15;;;10.93;;
64075;SDS011;50327;51.328;12.324;2023-05-20T05:47:07;18.55;;;11.50;;
64075;SDS011;50327;51.328;12.324;2023-05-20T05:49:32;19.08;;;11.50;;
64075;SDS011;50327;51.328;12.324;2023-05-20T05:51:57;21.88;;;11.68;;
64075;SDS011;50327;51.328;12.324;2023-05-20T05:54:23;23.83;;;11.30;;
64075;SDS011;50327;51.328;12.324;2023-05-20T05:56:49;22.50;;;11.35;;
64075;SDS011;50327;51.328;12.324;2023-05-20T05:59:15;23.05;;;11.25;;
64075;SDS011;50327;51.328;12.324;2023-05-20T06:01:40;22.13;;;11.85;;
64075;SDS011;50327;51.328;12.324;2023-05-20T06:04:05;21.73;;;11.40;;
64075;SDS011;50327;51.328;12.324;2023-05-20T06:06:30;21.17;;;11.60;;
64075;SDS011;50327;51.328;12.324;2023-05-20T06:08:56;21.17;;;11.00;;
64075;SDS011;50327;51.328;12.324;2023-05-20T06:11:22;19.58;;;10.63;;
64075;SDS011;50327;51.328;12.324;2023-05-20T06:13:48;18.30;;;11.25;;
64075;SDS011;50327;51.328;12.324;2023-05-20T06:16:13;19.80;;;10.77;;
64075;SDS011;50327;51.328;12.324;2023-05-20T06:18:38;19.25;;;11.50;;
64075;SDS011;50327;51.328;12.324;2023-05-20T06:21:03;21.52;;;11.07;;
64075;SDS011;50327;51.328;12.324;2023-05-20T06:23:29;21.80;;;11.07;;
64075;SDS011;50327;51.328;12.324;2023-05-20T06:25:57;20.60;;;12.05;;
64075;SDS011;50327;51.328;12.324;2023-05-20T06:28:23;19.15;;;11.65;;
64075;SDS011;50327;51.328;12.324;2023-05-20T06:30:48;18.95;;;10.82;;
64075;SDS011;50327;51.328;12.324;2023-05-20T06:33:13;21.33;;;12.10;;
64075;SDS011;50327;51.328;12.324;2023-05-20T06:35:39;20.60;;;10.93;;
64075;SDS011;50327;51.328;12.324;2023-05-20T06:38:04;19.60;;;11.77;;
64075;SDS011;50327;51.328;12.324;2023-05-20T06:40:29;17.92;;;10.88;;
64075;SDS011;50327;51.328;12.324;2023-05-20T06:42:55;21.92;;;11.40;;
64075;SDS011;50327;51.328;12.324;2023-05-20T06:45:20;20.17;;;11.10;;
64075;SDS011;50327;51.328;12.324;2023-05-20T06:47:46;17.52;;;11.20;;
64075;SDS011;50327;51.328;12.324;2023-05-20T06:50:13;20.75;;;11.25;;
64075;SDS011;50327;51.328;12.324;2023-05-20T06:52:38;21.48;;;11.18;;
64075;SDS011;50327;51.328;12.324;2023-05-20T06:55:04;20.48;;;11.65;;
64075;SDS011;50327;51.328;12.324;2023-05-20T06:57:29;22.25;;;11.63;;
64075;SDS011;50327;51.328;12.324;2023-05-20T06:59:55;17.48;;;10.10;;
64075;SDS011;50327;51.328;12.324;2023-05-20T07:02:20;19.17;;;11.20;;
64075;SDS011;50327;51.328;12.324;2023-05-20T07:04:46;21.45;;;11.55;;
64075;SDS011;50327;51.328;12.324;2023-05-20T07:07:12;16.88;;;10.60;;
64075;SDS011;50327;51.328;12.324;2023-05-20T07:09:37;21.00;;;11.40;;
64075;SDS011;50327;51.328;12.324;2023-05-20T07:12:02;22.05;;;12.02;;
64075;SDS011;50327;51.328;12.324;2023-05-20T07:14:27;21.55;;;11.68;;
64075;SDS011;50327;51.328;12.324;2023-05-20T07:16:53;22.92;;;12.25;;
64075;SDS011;50327;51.328;12.324;2023-05-20T07:19:18;19.83;;;11.50;;
64075;SDS011;50327;51.328;12.324;2023-05-20T07:21:44;24.08;;;12.10;;
64075;SDS011;50327;51.328;12.324;2023-05-20T07:24:09;20.90;;;11.90;;
64075;SDS011;50327;51.328;12.324;2023-05-20T07:26:34;20.48;;;11.70;;
64075;SDS011;50327;51.328;12.324;2023-05-20T07:29:01;20.20;;;11.05;;
64075;SDS011;50327;51.328;12.324;2023-05-20T07:31:26;29.58;;;12.23;;
64075;SDS011;50327;51.328;12.324;2023-05-20T07:33:51;24.48;;;12.90;;
64075;SDS011;50327;51.328;12.324;2023-05-20T07:36:16;25.98;;;12.68;;
64075;SDS011;50327;51.328;12.324;2023-05-20T07:38:42;22.45;;;13.25;;
64075;SDS011;50327;51.328;12.324;2023-05-20T07:41:07;23.58;;;12.80;;
64075;SDS011;50327;51.328;12.324;2023-05-20T07:43:32;26.02;;;13.18;;
64075;SDS011;50327;51.328;12.324;2023-05-20T07:45:57;22.48;;;12.75;;
64075;SDS011;50327;51.328;12.324;2023-05-20T07:48:23;23.00;;;13.18;;
64075;SDS011;50327;51.328;12.324;2023-05-20T07:50:48;24.70;;;13.50;;
64075;SDS011;50327;51.328;12.324;2023-05-20T07:53:13;22.70;;;13.20;;
64075;SDS011;50327;51.328;12.324;2023-05-20T07:55:38;24.98;;;13.35;;
64075;SDS011;50327;51.328;12.324;2023-05-20T07:58:04;27.48;;;13.02;;
64075;SDS011;50327;51.328;12.324;2023-05-20T08:00:29;27.63;;;12.98;;
64075;SDS011;50327;51.328;12.324;2023-05-20T08:02:54;25.98;;;13.98;;
64075;SDS011;50327;51.328;12.324;2023-05-20T08:05:20;22.42;;;13.27;;
64075;SDS011;50327;51.328;12.324;2023-05-20T08:07:46;31.42;;;12.75;;
64075;SDS011;50327;51.328;12.324;2023-05-20T08:10:11;22.05;;;13.15;;
64075;SDS011;50327;51.328;12.324;2023-05-20T08:12:37;24.98;;;11.98;;
64075;SDS011;50327;51.328;12.324;2023-05-20T08:15:02;25.27;;;13.82;;
64075;SDS011;50327;51.328;12.324;2023-05-20T08:17:28;23.35;;;13.00;;
64075;SDS011;50327;51.328;12.324;2023-05-20T08:19:53;27.65;;;12.77;;
64075;SDS011;50327;51.328;12.324;2023-05-20T08:22:18;22.67;;;12.20;;
64075;SDS011;50327;51.328;12.324;2023-05-20T08:24:43;21.80;;;12.52;;
64075;SDS011;50327;51.328;12.324;2023-05-20T08:27:09;23.88;;;12.05;;
64075;SDS011;50327;51.328;12.324;2023-05-20T08:29:34;20.85;;;11.70;;
64075;SDS011;50327;51.328;12.324;2023-05-20T08:32:00;22.20;;;12.30;;
64075;SDS011;50327;51.328;12.324;2023-05-20T08:34:25;21.98;;;12.82;;
64075;SDS011;50327;51.328;12.324;2023-05-20T08:36:50;22.48;;;12.20;;
64075;SDS011;50327;51.328;12.324;2023-05-20T08:39:16;21.65;;;12.57;;
64075;SDS011;50327;51.328;12.324;2023-05-20T08:41:41;19.13;;;12.00;;
64075;SDS011;50327;51.328;12.324;2023-05-20T08:44:06;25.58;;;11.23;;
64075;SDS011;50327;51.328;12.324;2023-05-20T08:46:34;18.07;;;11.47;;
64075;SDS011;50327;51.328;12.324;2023-05-20T08:49:00;23.20;;;11.90;;
64075;SDS011;50327;51.328;12.324;2023-05-20T08:51:25;23.63;;;11.70;;
64075;SDS011;50327;51.328;12.324;2023-05-20T08:53:51;19.75;;;11.60;;
64075;SDS011;50327;51.328;12.324;2023-05-20T08:56:16;24.70;;;11.48;;
64075;SDS011;50327;51.328;12.324;2023-05-20T08:58:41;19.75;;;11.57;;
64075;SDS011;50327;51.328;12.324;2023-05-20T09:01:07;22.55;;;12.07;;
64075;SDS011;50327;51.328;12.324;2023-05-20T09:03:32;20.60;;;12.40;;
64075;SDS011;50327;51.328;12.324;2023-05-20T09:06:04;24.27;;;12.68;;
64075;SDS011;50327;51.328;12.324;2023-05-20T09:08:29;23.73;;;12.75;;
64075;SDS011;50327;51.328;12.324;2023-05-20T09:10:55;21.20;;;11.98;;
64075;SDS011;50327;51.328;12.324;2023-05-20T09:13:20;21.67;;;12.00;;
64075;SDS011;50327;51.328;12.324;2023-05-20T09:15:45;21.15;;;11.75;;
64075;SDS011;50327;51.328;12.324;2023-05-20T09:18:10;24.83;;;12.18;;
64075;SDS011;50327;51.328;12.324;2023-05-20T09:20:36;20.10;;;11.73;;
64075;SDS011;50327;51.328;12.324;2023-05-20T09:23:02;24.20;;;12.43;;
64075;SDS011;50327;51.328;12.324;2023-05-20T09:25:28;25.40;;;11.88;;
64075;SDS011;50327;51.328;12.324;2023-05-20T09:27:53;23.65;;;11.55;;
64075;SDS011;50327;51.328;12.324;2023-05-20T09:30:19;26.80;;;12.50;;
64075;SDS011;50327;51.328;12.324;2023-05-20T09:32:44;24.45;;;12.90;;
64075;SDS011;50327;51.328;12.324;2023-05-20T09:35:13;25.67;;;12.90;;
64075;SDS011;50327;51.328;12.324;2023-05-20T09:37:41;21.90;;;11.43;;
64075;SDS011;50327;51.328;12.324;2023-05-20T09:40:07;23.90;;;13.02;;
64075;SDS011;50327;51.328;12.324;2023-05-20T09:42:38;22.88;;;12.63;;
64075;SDS011;50327;51.328;12.324;2023-05-20T09:45:06;26.60;;;14.30;;
64075;SDS011;50327;51.328;12.324;2023-05-20T09:47:33;23.90;;;13.30;;
64075;SDS011;50327;51.328;12.324;2023-05-20T09:49:59;28.88;;;13.38;;
64075;SDS011;50327;51.328;12.324;2023-05-20T09:52:25;24.67;;;13.90;;
64075;SDS011;50327;51.328;12.324;2023-05-20T09:54:52;22.25;;;12.40;;
64075;SDS011;50327;51.328;12.324;2023-05-20T09:57:20;24.67;;;12.65;;
64075;SDS011;50327;51.328;12.324;2023-05-20T09:59:45;25.73;;;12.45;;
64075;SDS011;50327;51.328;12.324;2023-05-20T10:02:10;21.15;;;12.73;;
64075;SDS011;50327;51.328;12.324;2023-05-20T10:04:37;27.27;;;15.30;;
64075;SDS011;50327;51.328;12.324;2023-05-20T10:17:30;23.45;;;12.43;;
64075;SDS011;50327;51.328;12.324;2023-05-20T10:19:59;29.80;;;13.32;;
64075;SDS011;50327;51.328;12.324;2023-05-20T10:22:28;20.98;;;13.05;;
64075;SDS011;50327;51.328;12.324;2023-05-20T10:24:57;24.55;;;12.93;;
64075;SDS011;50327;51.328;12.324;2023-05-20T10:27:23;22.50;;;12.27;;
64075;SDS011;50327;51.328;12.324;2023-05-20T10:29:54;25.15;;;12.68;;
64075;SDS011;50327;51.328;12.324;2023-05-20T10:32:30;21.08;;;12.50;;
64075;SDS011;50327;51.328;12.324;2023-05-20T10:35:02;27.05;;;13.25;;
64075;SDS011;50327;51.328;12.324;2023-05-20T10:37:50;19.42;;;11.90;;
64075;SDS011;50327;51.328;12.324;2023-05-20T10:40:14;22.70;;;12.90;;
64075;SDS011;50327;51.328;12.324;2023-05-20T10:42:40;20.75;;;12.30;;
64075;SDS011;50327;51.328;12.324;2023-05-20T10:45:06;22.27;;;12.00;;
64075;SDS011;50327;51.328;12.324;2023-05-20T10:47:32;23.65;;;12.48;;
64075;SDS011;50327;51.328;12.324;2023-05-20T10:49:57;21.55;;;13.15;;
64075;SDS011;50327;51.328;12.324;2023-05-20T10:52:23;23.60;;;12.35;;
64075;SDS011;50327;51.328;12.324;2023-05-20T10:54:55;20.88;;;12.23;;
64075;SDS011;50327;51.328;12.324;2023-05-20T10:57:21;19.27;;;11.93;;
64075;SDS011;50327;51.328;12.324;2023-05-20T10:59:46;24.63;;;12.60;;
64075;SDS011;50327;51.328;12.324;2023-05-20T11:02:14;22.00;;;12.13;;
64075;SDS011;50327;51.328;12.324;2023-05-20T11:04:41;21.38;;;11.52;;
64075;SDS011;50327;51.328;12.324;2023-05-20T11:07:07;17.73;;;11.85;;
64075;SDS011;50327;51.328;12.324;2023-05-20T11:09:32;18.88;;;12.00;;
64075;SDS011;50327;51.328;12.324;2023-05-20T11:11:58;23.25;;;12.02;;
64075;SDS011;50327;51.328;12.324;2023-05-20T11:14:23;31.60;;;12.20;;
64075;SDS011;50327;51.328;12.324;2023-05-20T11:16:51;19.17;;;11.55;;
64075;SDS011;50327;51.328;12.324;2023-05-20T11:19:18;22.00;;;11.82;;
64075;SDS011;50327;51.328;12.324;2023-05-20T11:21:44;19.60;;;11.10;;
64075;SDS011;50327;51.328;12.324;2023-05-20T11:24:10;24.40;;;12.20;;
64075;SDS011;50327;51.328;12.324;2023-05-20T11:26:35;20.13;;;10.73;;
64075;SDS011;50327;51.328;12.324;2023-05-20T11:29:01;19.10;;;11.32;;
64075;SDS011;50327;51.328;12.324;2023-05-20T11:31:26;23.30;;;11.88;;
64075;SDS011;50327;51.328;12.324;2023-05-20T11:33:52;26.33;;;11.35;;
64075;SDS011;50327;51.328;12.324;2023-05-20T11:36:17;20.40;;;11.32;;
64075;SDS011;50327;51.328;12.324;2023-05-20T11:38:44;18.85;;;12.00;;
64075;SDS011;50327;51.328;12.324;2023-05-20T11:41:09;20.17;;;11.20;;
64075;SDS011;50327;51.328;12.324;2023-05-20T11:43:35;21.73;;;11.23;;
64075;SDS011;50327;51.328;12.324;2023-05-20T11:46:00;18.70;;;11.65;;
64075;SDS011;50327;51.328;12.324;2023-05-20T11:48:25;17.95;;;10.48;;
64075;SDS011;50327;51.328;12.324;2023-05-20T11:50:52;25.23;;;11.52;;
64075;SDS011;50327;51.328;12.324;2023-05-20T11:53:17;21.67;;;10.63;;
64075;SDS011;50327;51.328;12.324;2023-05-20T11:55:44;19.88;;;10.70;;
64075;SDS011;50327;51.328;12.324;2023-05-20T11:58:10;22.05;;;11.90;;
64075;SDS011;50327;51.328;12.324;2023-05-20T12:00:35;17.85;;;10.70;;
64075;SDS011;50327;51.328;12.324;2023-05-20T12:03:00;22.42;;;12.23;;
64075;SDS011;50327;51.328;12.324;2023-05-20T12:05:26;21.25;;;9.98;;
64075;SDS011;50327;51.328;12.324;2023-05-20T12:07:51;19.50;;;10.63;;
64075;SDS011;50327;51.328;12.324;2023-05-20T12:10:16;19.10;;;11.07;;
64075;SDS011;50327;51.328;12.324;2023-05-20T12:12:42;16.15;;;9.82;;
64075;SDS011;50327;51.328;12.324;2023-05-20T12:15:09;19.25;;;10.88;;
64075;SDS011;50327;51.328;12.324;2023-05-20T12:17:43;23.25;;;10.75;;
64075;SDS011;50327;51.328;12.324;2023-05-20T12:20:08;17.77;;;10.02;;
64075;SDS011;50327;51.328;12.324;2023-05-20T12:22:34;19.25;;;10.63;;
64075;SDS011;50327;51.328;12.324;2023-05-20T12:24:59;15.90;;;9.65;;
64075;SDS011;50327;51.328;12.324;2023-05-20T12:27:24;19.83;;;10.43;;
64075;SDS011;50327;51.328;12.324;2023-05-20T12:29:50;17.30;;;9.30;;
64075;SDS011;50327;51.328;12.324;2023-05-20T12:32:15;18.85;;;10.75;;
64075;SDS011;50327;51.328;12.324;2023-05-20T12:34:40;23.52;;;10.05;;
64075;SDS011;50327;51.328;12.324;2023-05-20T12:37:06;19.15;;;9.68;;
64075;SDS011;50327;51.328;12.324;2023-05-20T12:39:31;17.75;;;10.18;;
64075;SDS011;50327;51.328;12.324;2023-05-20T12:41:56;19.33;;;10.55;;
64075;SDS011;50327;51.328;12.324;2023-05-20T12:44:22;20.80;;;10.98;;
64075;SDS011;50327;51.328;12.324;2023-05-20T12:46:47;30.45;;;11.00;;
64075;SDS011;50327;51.328;12.324;2023-05-20T12:49:12;18.35;;;9.82;;
64075;SDS011;50327;51.328;12.324;2023-05-20T12:51:37;20.88;;;10.73;;
64075;SDS011;50327;51.328;12.324;2023-05-20T12:54:03;25.25;;;11.10;;
64075;SDS011;50327;51.328;12.324;2023-05-20T12:56:28;16.38;;;10.68;;
64075;SDS011;50327;51.328;12.324;2023-05-20T12:58:54;20.20;;;11.48;;
64075;SDS011;50327;51.328;12.324;2023-05-20T13:01:19;22.05;;;12.35;;
64075;SDS011;50327;51.328;12.324;2023-05-20T13:03:45;23.23;;;10.38;;
64075;SDS011;50327;51.328;12.324;2023-05-20T13:06:11;21.52;;;11.55;;
64075;SDS011;50327;51.328;12.324;2023-05-20T13:08:36;21.50;;;10.55;;
64075;SDS011;50327;51.328;12.324;2023-05-20T13:11:01;18.83;;;11.68;;
64075;SDS011;50327;51.328;12.324;2023-05-20T13:13:26;17.17;;;11.50;;
64075;SDS011;50327;51.328;12.324;2023-05-20T13:15:53;23.95;;;12.00;;
64075;SDS011;50327;51.328;12.324;2023-05-20T13:18:18;20.83;;;11.68;;
64075;SDS011;50327;51.328;12.324;2023-05-20T13:20:44;23.85;;;11.27;;
64075;SDS011;50327;51.328;12.324;2023-05-20T13:23:09;22.75;;;12.52;;
64075;SDS011;50327;51.328;12.324;2023-05-20T13:25:35;25.23;;;13.02;;
64075;SDS011;50327;51.328;12.324;2023-05-20T13:28:00;19.73;;;11.52;;
64075;SDS011;50327;51.328;12.324;2023-05-20T13:30:26;21.25;;;11.80;;
64075;SDS011;50327;51.328;12.324;2023-05-20T13:32:52;24.95;;;11.15;;
64075;SDS011;50327;51.328;12.324;2023-05-20T13:35:17;19.95;;;11.27;;
64075;SDS011;50327;51.328;12.324;2023-05-20T13:37:42;21.98;;;12.85;;
64075;SDS011;50327;51.328;12.324;2023-05-20T13:40:08;23.10;;;12.80;;
64075;SDS011;50327;51.328;12.324;2023-05-20T13:42:34;18.90;;;11.32;;
64075;SDS011;50327;51.328;12.324;2023-05-20T13:44:59;19.60;;;12.02;;
64075;SDS011;50327;51.328;12.324;2023-05-20T13:47:24;20.27;;;12.15;;
64075;SDS011;50327;51.328;12.324;2023-05-20T13:49:49;27.55;;;12.07;;
64075;SDS011;50327;51.328;12.324;2023-05-20T13:52:15;26.35;;;11.38;;
64075;SDS011;50327;51.328;12.324;2023-05-20T13:54:40;17.63;;;11.25;;
64075;SDS011;50327;51.328;12.324;2023-05-20T13:57:07;20.45;;;10.73;;
64075;SDS011;50327;51.328;12.324;2023-05-20T13:59:32;23.83;;;11.18;;
64075;SDS011;50327;51.328;12.324;2023-05-20T14:01:57;18.52;;;10.18;;
64075;SDS011;50327;51.328;12.324;2023-05-20T14:04:24;21.17;;;10.55;;
64075;SDS011;50327;51.328;12.324;2023-05-20T14:06:49;19.23;;;10.60;;
64075;SDS011;50327;51.328;12.324;2023-05-20T14:09:14;18.73;;;11.55;;
64075;SDS011;50327;51.328;12.324;2023-05-20T14:11:40;16.75;;;10.50;;
64075;SDS011;50327;51.328;12.324;2023-05-20T14:14:05;19.55;;;11.20;;
64075;SDS011;50327;51.328;12.324;2023-05-20T14:16:30;19.17;;;10.95;;